createdAt,value
2018-08-30T10:20:39.960Z,67.50
2018-08-30T10:21:27.516Z,28.12
2018-08-30T10:22:12.544Z,22.50
2018-08-30T10:23:12.532Z,22.50
2018-08-30T10:24:15.614Z,16.88
2018-08-30T10:25:12.510Z,16.88
2018-08-30T10:26:12.782Z,11.25
2018-08-30T10:27:13.355Z,11.25
2018-08-30T10:28:12.447Z,11.25
2018-08-30T10:29:12.489Z,11.25
2018-08-30T10:30:12.400Z,16.88
2018-08-30T10:31:12.383Z,16.88
2018-08-30T10:32:12.412Z,16.88
2018-08-30T10:33:12.453Z,16.88
2018-08-30T10:34:13.645Z,16.88
2018-08-30T10:35:12.383Z,16.88
2018-08-30T10:36:12.365Z,22.50
2018-08-30T10:37:12.344Z,56.25
2018-08-30T10:38:12.331Z,56.25
2018-08-30T10:39:17.213Z,45.00
2018-08-30T10:40:12.727Z,56.25
2018-08-30T10:41:12.297Z,56.25
2018-08-30T10:42:12.270Z,39.38
2018-08-30T10:43:13.302Z,50.62
2018-08-30T10:44:12.246Z,56.25
2018-08-30T10:45:13.926Z,56.25
2018-08-30T10:46:12.272Z,61.88
2018-08-30T10:47:12.225Z,61.88
2018-08-30T10:48:12.229Z,61.88
2018-08-30T10:49:12.200Z,50.62
2018-08-30T10:50:12.221Z,28.12
2018-08-30T10:51:12.238Z,22.50
2018-08-30T10:52:12.286Z,22.50
2018-08-30T10:53:19.051Z,22.50
2018-08-30T10:54:12.144Z,16.88
2018-08-30T10:56:24.769Z,16.88
2018-08-30T10:57:32.090Z,16.88
2018-08-30T10:58:21.023Z,16.88
2018-08-30T10:59:20.932Z,16.88
2018-08-30T11:00:21.053Z,50.62
2018-08-30T11:01:20.904Z,56.25
2018-08-30T11:02:20.890Z,50.62
2018-08-30T11:03:21.560Z,50.62
2018-08-30T11:04:20.921Z,50.62
2018-08-30T11:05:20.866Z,56.25
2018-08-30T11:06:20.856Z,56.25
2018-08-30T11:07:20.835Z,50.62
2018-08-30T11:08:20.936Z,45.00
2018-08-30T11:09:21.307Z,45.00
2018-08-30T11:10:22.364Z,45.00
2018-08-30T11:11:21.540Z,50.62
2018-08-30T11:12:20.908Z,50.62
2018-08-30T11:13:21.018Z,45.00
2018-08-30T11:14:20.953Z,50.62
2018-08-30T11:15:20.783Z,50.62
2018-08-30T11:16:20.790Z,50.62
2018-08-30T11:17:20.843Z,50.62
2018-08-30T11:18:21.073Z,50.62
2018-08-30T11:19:20.763Z,50.62
2018-08-30T11:20:20.873Z,50.62
2018-08-30T11:21:20.814Z,50.62
2018-08-30T11:22:21.637Z,56.25
2018-08-30T11:23:21.676Z,56.25
2018-08-30T11:24:20.671Z,56.25
2018-08-30T11:25:20.644Z,56.25
2018-08-30T11:26:20.700Z,56.25
2018-08-30T11:27:20.626Z,22.50
2018-08-30T11:28:20.821Z,16.88
2018-08-30T11:29:22.366Z,50.62
2018-08-30T11:30:20.675Z,22.50
2018-08-30T11:31:34.856Z,22.50
2018-08-30T11:32:20.584Z,16.88
2018-08-30T11:33:20.579Z,16.88
2018-08-30T11:34:20.547Z,16.88
2018-08-30T11:35:20.668Z,45.00
2018-08-30T11:36:20.570Z,45.00
2018-08-30T11:37:20.594Z,28.12
2018-08-30T11:38:20.559Z,28.12
2018-08-30T11:39:20.498Z,16.88
2018-08-30T11:40:25.394Z,16.88
2018-08-30T11:41:20.486Z,16.88
2018-08-30T11:42:20.559Z,16.88
2018-08-30T11:43:20.811Z,45.00
2018-08-30T11:44:20.486Z,45.00
2018-08-30T11:45:21.367Z,45.00
2018-08-30T11:46:20.440Z,45.00
2018-08-30T11:47:20.509Z,45.00
2018-08-30T11:48:20.409Z,45.00
2018-08-30T11:49:20.378Z,45.00
2018-08-30T11:50:20.367Z,45.00
2018-08-30T11:51:20.476Z,45.00
2018-08-30T11:52:20.476Z,45.00
2018-08-30T11:53:20.760Z,45.00
2018-08-30T11:54:20.419Z,45.00
2018-08-30T11:55:20.321Z,45.00
2018-08-30T11:56:20.364Z,45.00
2018-08-30T11:57:20.878Z,45.00
2018-08-30T11:58:20.353Z,45.00
2018-08-30T11:59:20.279Z,45.00
2018-08-30T12:00:20.295Z,45.00
2018-08-30T12:01:20.264Z,45.00
2018-08-30T12:02:20.248Z,45.00
2018-08-30T12:03:20.238Z,45.00
2018-08-30T12:04:23.261Z,45.00
2018-08-30T12:05:20.272Z,45.00
2018-08-30T12:06:20.279Z,45.00
2018-08-30T12:07:20.232Z,45.00
2018-08-30T12:08:20.214Z,50.62
2018-08-30T12:09:20.181Z,45.00
2018-08-30T12:10:20.309Z,39.38
2018-08-30T12:11:20.224Z,45.00
2018-08-30T12:12:20.161Z,45.00
2018-08-30T12:13:20.162Z,45.00
2018-08-30T12:14:20.109Z,39.38
2018-08-30T12:15:20.134Z,39.38
2018-08-30T12:16:20.737Z,39.38
2018-08-30T12:17:20.085Z,45.00
2018-08-30T12:18:21.477Z,45.00
2018-08-30T12:19:20.073Z,39.38
2018-08-30T12:20:20.068Z,33.75
2018-08-30T12:21:20.186Z,28.12
2018-08-30T12:22:20.108Z,22.50
2018-08-30T12:23:20.018Z,33.75
2018-08-30T12:24:20.031Z,39.38
2018-08-30T12:25:20.008Z,39.38
2018-08-30T12:26:19.993Z,33.75
2018-08-30T12:27:20.027Z,33.75
2018-08-30T12:28:20.099Z,22.50
2018-08-30T12:29:19.977Z,28.12
2018-08-30T12:30:19.991Z,45.00
2018-08-30T12:31:20.072Z,45.00
2018-08-30T12:32:20.035Z,45.00
2018-08-30T12:33:20.173Z,39.38
2018-08-30T12:34:20.077Z,22.50
2018-08-30T12:35:20.035Z,16.88
2018-08-30T12:36:19.993Z,16.88
2018-08-30T12:39:02.963Z,22.50
2018-08-30T12:40:02.909Z,16.88
2018-08-30T12:41:07.457Z,33.75
2018-08-30T12:43:13.007Z,39.38
2018-08-30T12:44:12.751Z,39.38
2018-08-30T12:45:12.871Z,39.38
2018-08-30T12:46:12.506Z,39.38
2018-08-30T12:47:13.129Z,39.38
2018-08-30T12:48:12.454Z,39.38
2018-08-30T12:49:12.486Z,39.38
2018-08-30T12:50:12.557Z,39.38
2018-08-30T12:51:12.506Z,39.38
2018-08-30T12:52:13.078Z,39.38
2018-08-30T12:53:12.526Z,39.38
2018-08-30T12:54:12.511Z,39.38
2018-08-30T12:55:12.554Z,39.38
2018-08-30T12:56:12.542Z,33.75
2018-08-30T12:57:12.494Z,22.50
2018-08-30T12:58:12.811Z,39.38
2018-08-30T12:59:12.489Z,39.38
2018-08-30T13:00:12.551Z,39.38
2018-08-30T13:01:12.456Z,39.38
2018-08-30T13:02:12.484Z,39.38
2018-08-30T13:03:12.439Z,39.38
2018-08-30T13:04:12.453Z,39.38
2018-08-30T13:05:12.547Z,39.38
2018-08-30T13:06:12.640Z,33.75
2018-08-30T13:07:12.429Z,39.38
2018-08-30T13:08:12.450Z,39.38
2018-08-30T13:09:12.620Z,28.12
2018-08-30T13:10:12.473Z,39.38
2018-08-30T13:11:12.816Z,39.38
2018-08-30T13:12:12.692Z,39.38
2018-08-30T13:13:12.519Z,33.75
2018-08-30T13:14:12.331Z,22.50
2018-08-30T13:15:12.535Z,22.50
2018-08-30T13:16:12.491Z,39.38
2018-08-30T13:17:15.125Z,16.88
2018-08-30T13:18:12.421Z,39.38
2018-08-30T13:19:12.418Z,16.88
2018-08-30T13:20:12.506Z,16.88
2018-08-30T13:21:12.475Z,16.88
2018-08-30T13:22:12.406Z,16.88
2018-08-30T13:23:12.395Z,28.12
2018-08-30T13:24:12.317Z,33.75
2018-08-30T13:25:12.337Z,16.88
2018-08-30T13:26:12.372Z,33.75
2018-08-30T13:27:12.466Z,28.12
2018-08-30T13:28:12.190Z,28.12
2018-08-30T13:29:12.310Z,28.12
2018-08-30T13:30:15.497Z,28.12
2018-08-30T13:31:12.396Z,28.12
2018-08-30T13:32:12.426Z,28.12
2018-08-30T13:33:19.905Z,28.12
2018-08-30T13:34:15.175Z,28.12
2018-08-30T13:35:12.446Z,28.12
2018-08-30T13:36:12.333Z,28.12
2018-08-30T13:37:12.294Z,28.12
2018-08-30T13:38:12.417Z,28.12
2018-08-30T13:39:12.306Z,28.12
2018-08-30T13:40:12.417Z,16.88
2018-08-30T13:41:12.749Z,28.12
2018-08-30T13:42:17.349Z,28.12
2018-08-30T13:43:13.348Z,28.12
2018-08-30T13:44:12.550Z,33.75
2018-08-30T13:45:12.303Z,28.12
2018-08-30T13:46:21.379Z,28.12
2018-08-30T13:47:12.183Z,28.12
2018-08-30T13:48:12.242Z,28.12
2018-08-30T13:49:12.496Z,28.12
2018-08-30T13:50:12.478Z,28.12
2018-08-30T13:51:12.105Z,28.12
2018-08-30T13:52:12.835Z,16.88
2018-08-30T13:53:12.203Z,28.12
2018-08-30T13:54:12.297Z,28.12
2018-08-30T13:55:12.196Z,28.12
2018-08-30T13:56:12.153Z,16.88
2018-08-30T13:57:12.158Z,16.88
2018-08-30T13:58:12.200Z,16.88
2018-08-30T13:59:12.096Z,22.50
2018-08-30T14:00:12.421Z,16.88
2018-08-30T14:01:12.177Z,11.25
2018-08-30T14:02:12.011Z,28.12
2018-08-30T14:03:12.409Z,22.50
2018-08-30T14:04:11.970Z,11.25
2018-08-30T14:05:12.102Z,11.25
2018-08-30T14:06:11.983Z,11.25
2018-08-30T14:07:11.941Z,22.50
2018-08-30T14:08:11.835Z,16.88
2018-08-30T14:09:12.108Z,11.25
2018-08-30T14:10:12.053Z,11.25
2018-08-30T14:11:11.883Z,11.25
2018-08-30T14:12:12.273Z,22.50
2018-08-30T14:13:11.821Z,22.50
2018-08-30T14:14:11.816Z,22.50
2018-08-30T14:15:12.017Z,22.50
2018-08-30T14:16:11.662Z,11.25
2018-08-30T14:17:11.478Z,11.25
2018-08-30T14:18:11.630Z,11.25
2018-08-30T14:19:11.516Z,22.50
2018-08-30T14:20:11.741Z,11.25
2018-08-30T14:21:11.462Z,11.25
2018-08-30T14:22:11.458Z,11.25
2018-08-30T14:23:11.435Z,11.25
2018-08-30T14:24:11.414Z,11.25
2018-08-30T14:25:11.504Z,16.88
2018-08-30T14:26:11.594Z,16.88
2018-08-30T14:27:11.680Z,22.50
2018-08-30T14:28:11.360Z,16.88
2018-08-30T14:29:11.407Z,11.25
2018-08-30T14:30:11.445Z,11.25
2018-08-30T14:31:11.383Z,16.88
2018-08-30T14:32:21.346Z,16.88
2018-08-30T14:33:11.471Z,16.88
2018-08-30T14:34:12.211Z,11.25
2018-08-30T14:35:11.314Z,16.88
2018-08-30T14:36:11.372Z,16.88
2018-08-30T14:37:11.293Z,11.25
2018-08-30T14:38:11.354Z,11.25
2018-08-30T14:39:11.288Z,11.25
2018-08-30T14:40:11.413Z,11.25
2018-08-30T14:41:11.397Z,5.62
2018-08-30T14:42:11.235Z,5.62
2018-08-30T14:43:16.113Z,11.25
2018-08-30T14:44:11.319Z,16.88
2018-08-30T14:45:11.264Z,11.25
2018-08-30T14:46:11.166Z,11.25
2018-08-30T14:47:11.368Z,11.25
2018-08-30T14:48:11.156Z,11.25
2018-08-30T14:49:11.260Z,11.25
2018-08-30T14:50:11.208Z,22.50
2018-08-30T14:51:11.220Z,22.50
2018-08-30T14:52:14.138Z,16.88
2018-08-30T14:53:14.212Z,16.88
2018-08-30T14:54:11.103Z,11.25
2018-08-30T14:55:11.148Z,16.88
2018-08-30T14:56:11.137Z,16.88
2018-08-30T14:57:11.055Z,16.88
2018-08-30T14:58:11.173Z,22.50
2018-08-30T14:59:11.056Z,22.50
2018-08-30T15:00:11.044Z,22.50
2018-08-30T15:01:11.776Z,11.25
2018-08-30T15:02:11.096Z,11.25
2018-08-30T15:03:11.121Z,11.25
2018-08-30T15:04:11.066Z,16.88
2018-08-30T15:05:11.260Z,16.88
2018-08-30T15:06:11.026Z,11.25
2018-08-30T15:07:10.952Z,11.25
2018-08-30T15:08:10.965Z,16.88
2018-08-30T15:09:10.976Z,16.88
2018-08-30T15:10:10.926Z,16.88
2018-08-30T15:11:10.924Z,16.88
2018-08-30T15:12:10.928Z,5.62
2018-08-30T15:13:10.981Z,5.62
2018-08-30T15:14:10.942Z,5.62
2018-08-30T15:15:10.849Z,11.25
2018-08-30T15:16:10.921Z,11.25
2018-08-30T15:17:10.930Z,11.25
2018-08-30T15:18:10.880Z,11.25
2018-08-30T15:19:10.897Z,11.25
2018-08-30T15:20:10.950Z,11.25
2018-08-30T15:21:10.813Z,11.25
2018-08-30T15:22:10.812Z,16.88
2018-08-30T15:23:10.844Z,16.88
2018-08-30T15:24:10.771Z,11.25
2018-08-30T15:25:10.753Z,16.88
2018-08-30T15:26:10.784Z,11.25
2018-08-30T15:27:10.949Z,5.62
2018-08-30T15:28:10.771Z,16.88
2018-08-30T15:29:10.731Z,5.62
2018-08-30T15:30:10.799Z,5.62
2018-08-30T15:31:13.024Z,5.62
2018-08-30T15:32:10.730Z,16.88
2018-08-30T15:33:10.692Z,16.88
2018-08-30T15:34:10.716Z,16.88
2018-08-30T15:35:10.704Z,16.88
2018-08-30T15:36:10.746Z,16.88
2018-08-30T15:37:10.684Z,11.25
2018-08-30T15:38:10.608Z,11.25
2018-08-30T15:39:10.623Z,11.25
2018-08-30T15:40:10.612Z,11.25
2018-08-30T15:41:10.629Z,11.25
2018-08-30T15:42:10.709Z,11.25
2018-08-30T15:43:10.642Z,11.25
2018-08-30T15:44:15.418Z,11.25
2018-08-30T15:45:10.522Z,11.25
2018-08-30T15:46:10.551Z,11.25
2018-08-30T15:47:10.577Z,11.25
2018-08-30T15:48:10.715Z,11.25
2018-08-30T15:49:10.510Z,11.25
2018-08-30T15:50:10.502Z,11.25
2018-08-30T15:51:10.537Z,11.25
2018-08-30T15:52:10.502Z,11.25
2018-08-30T15:53:10.566Z,11.25
2018-08-30T15:54:10.479Z,11.25
2018-08-30T15:55:10.454Z,11.25
2018-08-30T15:56:10.486Z,11.25
2018-08-30T15:57:10.474Z,11.25
2018-08-30T15:58:10.457Z,11.25
2018-08-30T15:59:10.398Z,11.25
2018-08-30T16:00:10.382Z,11.25
2018-08-30T16:01:10.780Z,11.25
2018-08-30T16:02:10.361Z,11.25
2018-08-30T16:03:10.371Z,11.25
2018-08-30T16:04:10.339Z,11.25
2018-08-30T16:05:10.361Z,11.25
2018-08-30T16:06:10.337Z,11.25
2018-08-30T16:07:10.310Z,11.25
2018-08-30T16:08:10.342Z,11.25
2018-08-30T16:09:10.317Z,11.25
2018-08-30T16:10:10.324Z,11.25
2018-08-30T16:11:10.378Z,11.25
2018-08-30T16:12:10.242Z,5.62
2018-08-30T16:13:10.543Z,5.62
2018-08-30T16:14:10.252Z,11.25
2018-08-30T16:15:10.346Z,5.62
2018-08-30T16:16:10.271Z,5.62
2018-08-30T16:17:10.395Z,5.62
2018-08-30T16:18:10.210Z,5.62
2018-08-30T16:19:10.154Z,5.62
2018-08-30T16:20:10.146Z,5.62
2018-08-30T16:21:10.155Z,5.62
2018-08-30T16:22:10.142Z,5.62
2018-08-30T16:23:10.261Z,5.62
2018-08-30T16:24:10.164Z,5.62
2018-08-30T16:25:10.101Z,5.62
2018-08-30T16:26:10.084Z,5.62
2018-08-30T16:27:11.043Z,5.62
2018-08-30T16:28:10.096Z,5.62
2018-08-30T16:29:10.119Z,5.62
2018-08-30T16:30:10.077Z,5.62
2018-08-30T16:31:10.035Z,5.62
2018-08-30T16:32:10.035Z,5.62
2018-08-30T16:33:10.013Z,5.62
2018-08-30T16:34:10.015Z,5.62
2018-08-30T16:35:10.084Z,5.62
2018-08-30T16:36:10.142Z,5.62
2018-08-30T16:37:10.017Z,5.62
2018-08-30T16:38:09.995Z,5.62
2018-08-30T16:39:10.025Z,5.62
2018-08-30T16:40:09.965Z,5.62
2018-08-30T16:41:09.968Z,5.62
2018-08-30T16:42:09.943Z,5.62
2018-08-30T16:43:09.919Z,5.62
2018-08-30T16:44:09.903Z,5.62
2018-08-30T16:45:09.896Z,5.62
2018-08-30T16:46:14.796Z,5.62
2018-08-30T16:47:09.909Z,5.62
2018-08-30T16:48:09.938Z,5.62
2018-08-30T16:49:09.884Z,5.62
2018-08-30T16:50:09.838Z,5.62
2018-08-30T16:51:09.856Z,5.62
2018-08-30T16:52:09.833Z,5.62
2018-08-30T16:53:09.913Z,5.62
2018-08-30T16:54:09.897Z,5.62
2018-08-30T16:55:09.840Z,5.62
2018-08-30T16:56:09.830Z,5.62
2018-08-30T16:57:09.762Z,0.00
2018-08-30T16:58:09.751Z,0.00
2018-08-30T16:59:09.892Z,0.00
2018-08-30T17:00:09.738Z,0.00
2018-08-30T17:01:09.833Z,5.62
2018-08-30T17:02:09.717Z,5.62
2018-08-30T17:03:09.678Z,5.62
2018-08-30T17:04:09.709Z,5.62
2018-08-30T17:05:09.756Z,5.62
2018-08-30T17:06:09.685Z,5.62
2018-08-30T17:07:09.658Z,5.62
2018-08-30T17:08:09.624Z,5.62
2018-08-30T17:09:09.669Z,5.62
2018-08-30T17:10:09.691Z,5.62
2018-08-30T17:11:09.633Z,0.00
2018-08-30T17:12:09.590Z,0.00
2018-08-30T17:13:09.595Z,0.00
2018-08-30T17:14:09.553Z,0.00
2018-08-30T17:15:09.557Z,5.62
2018-08-30T17:16:09.576Z,5.62
2018-08-30T17:17:09.596Z,5.62
2018-08-30T17:18:09.545Z,0.00
2018-08-30T17:19:09.544Z,0.00
2018-08-30T17:20:09.591Z,0.00
2018-08-30T17:21:09.503Z,0.00
2018-08-30T17:22:09.599Z,0.00
2018-08-30T17:23:09.507Z,0.00
2018-08-30T17:24:09.484Z,0.00
2018-08-30T17:25:09.556Z,0.00
2018-08-30T17:26:09.532Z,0.00
2018-08-30T17:27:09.427Z,0.00
2018-08-30T17:28:09.426Z,0.00
2018-08-30T17:29:09.398Z,0.00
2018-08-30T17:30:09.415Z,0.00
2018-08-30T17:31:09.540Z,0.00
2018-08-30T17:32:09.441Z,0.00
2018-08-30T17:33:09.357Z,0.00
2018-08-30T17:34:09.388Z,0.00
2018-08-30T17:35:09.348Z,0.00
2018-08-30T17:36:09.361Z,0.00
2018-08-30T17:37:09.357Z,0.00
2018-08-30T17:38:09.386Z,0.00
2018-08-30T17:39:09.340Z,0.00
2018-08-30T17:40:09.359Z,0.00
2018-08-30T17:41:09.378Z,0.00
2018-08-30T17:42:09.286Z,0.00
2018-08-30T17:43:09.246Z,0.00
2018-08-30T17:44:09.273Z,0.00
2018-08-30T17:45:09.267Z,0.00
2018-08-30T17:46:09.266Z,0.00
2018-08-30T17:47:14.106Z,0.00
2018-08-30T17:48:09.226Z,0.00
2018-08-30T17:49:09.195Z,0.00
2018-08-30T17:50:09.188Z,0.00
2018-08-30T17:51:09.195Z,0.00
2018-08-30T17:52:09.174Z,0.00
2018-08-30T17:53:09.170Z,0.00
2018-08-30T17:54:09.136Z,0.00
2018-08-30T17:55:09.143Z,0.00
2018-08-30T17:56:09.323Z,0.00
2018-08-30T17:57:09.116Z,0.00
2018-08-30T17:58:09.109Z,0.00
2018-08-30T17:59:09.073Z,0.00
2018-08-30T18:00:09.078Z,0.00
2018-08-30T18:01:09.154Z,0.00
2018-08-30T18:02:09.042Z,0.00
2018-08-30T18:03:09.038Z,0.00
2018-08-30T18:04:09.114Z,0.00
2018-08-30T18:05:09.014Z,0.00
2018-08-30T18:06:09.019Z,0.00
2018-08-30T18:07:09.111Z,0.00
2018-08-30T18:08:09.018Z,0.00
2018-08-30T18:09:08.969Z,0.00
2018-08-30T18:10:09.060Z,0.00
2018-08-30T18:11:08.963Z,0.00
2018-08-30T18:12:08.978Z,0.00
2018-08-30T18:13:08.947Z,0.00
2018-08-30T18:14:08.926Z,0.00
2018-08-30T18:15:08.930Z,0.00
2018-08-30T18:16:08.939Z,0.00
2018-08-30T18:17:08.908Z,0.00
2018-08-30T18:18:08.971Z,0.00
2018-08-30T18:19:08.854Z,0.00
2018-08-30T18:20:08.860Z,0.00
2018-08-30T18:21:08.863Z,0.00
2018-08-30T18:22:08.909Z,0.00
2018-08-30T18:23:08.827Z,0.00
2018-08-30T18:24:08.877Z,0.00
2018-08-30T18:25:08.799Z,0.00
2018-08-30T18:26:08.817Z,0.00
2018-08-30T18:27:08.771Z,0.00
2018-08-30T18:28:08.843Z,0.00
2018-08-30T18:29:08.762Z,0.00
2018-08-30T18:30:08.747Z,0.00
2018-08-30T18:31:08.726Z,0.00
2018-08-30T18:32:08.742Z,0.00
2018-08-30T18:33:08.728Z,0.00
2018-08-30T18:34:08.769Z,0.00
2018-08-30T18:35:08.816Z,0.00
2018-08-30T18:36:08.712Z,0.00
2018-08-30T18:37:08.681Z,0.00
2018-08-30T18:38:08.661Z,0.00
2018-08-30T18:39:08.666Z,0.00
2018-08-30T18:40:08.727Z,0.00
2018-08-30T18:41:08.626Z,0.00
2018-08-30T18:42:08.705Z,0.00
2018-08-30T18:43:08.664Z,0.00
2018-08-30T18:44:08.594Z,0.00
2018-08-30T18:45:08.601Z,0.00
2018-08-30T18:46:08.600Z,0.00
2018-08-30T18:47:08.609Z,0.00
2018-08-30T18:48:13.423Z,0.00
2018-08-30T18:49:08.579Z,0.00
2018-08-30T18:50:08.543Z,0.00
2018-08-30T18:51:08.575Z,0.00
2018-08-30T18:52:08.520Z,0.00
2018-08-30T18:53:08.499Z,0.00
2018-08-30T18:54:08.507Z,0.00
2018-08-30T18:55:08.500Z,0.00
2018-08-30T18:56:08.507Z,0.00
2018-08-30T18:57:08.498Z,0.00
2018-08-30T18:58:08.430Z,0.00
2018-08-30T18:59:08.447Z,0.00
2018-08-30T19:00:08.440Z,0.00
2018-08-30T19:01:08.426Z,0.00
2018-08-30T19:02:08.412Z,0.00
2018-08-30T19:03:08.490Z,0.00
2018-08-30T19:04:08.422Z,0.00
2018-08-30T19:05:08.367Z,0.00
2018-08-30T19:06:08.356Z,0.00
2018-08-30T19:07:08.352Z,0.00
2018-08-30T19:08:08.419Z,0.00
2018-08-30T19:09:08.361Z,0.00
2018-08-30T19:10:08.353Z,0.00
2018-08-30T19:11:08.325Z,0.00
2018-08-30T19:12:08.296Z,0.00
2018-08-30T19:13:08.331Z,0.00
2018-08-30T19:14:08.284Z,0.00
2018-08-30T19:15:08.296Z,0.00
2018-08-30T19:16:08.312Z,0.00
2018-08-30T19:17:08.289Z,0.00
2018-08-30T19:18:08.246Z,0.00
2018-08-30T19:19:08.242Z,0.00
2018-08-30T19:20:08.221Z,0.00
2018-08-30T19:21:08.236Z,0.00
2018-08-30T19:22:08.182Z,0.00
2018-08-30T19:23:08.180Z,0.00
2018-08-30T19:24:08.194Z,0.00
2018-08-30T19:25:08.157Z,0.00
2018-08-30T19:26:08.174Z,0.00
2018-08-30T19:27:08.179Z,0.00
2018-08-30T19:28:08.113Z,0.00
2018-08-30T19:29:08.110Z,0.00
2018-08-30T19:30:08.121Z,0.00
2018-08-30T19:31:08.123Z,0.00
2018-08-30T19:32:08.087Z,0.00
2018-08-30T19:33:08.136Z,0.00
2018-08-30T19:34:08.091Z,0.00
2018-08-30T19:35:08.126Z,0.00
2018-08-30T19:36:08.053Z,0.00
2018-08-30T19:37:08.077Z,0.00
2018-08-30T19:38:08.092Z,0.00
2018-08-30T19:39:08.005Z,0.00
2018-08-30T19:40:07.994Z,0.00
2018-08-30T19:41:08.020Z,0.00
2018-08-30T19:42:08.010Z,0.00
2018-08-30T19:43:07.988Z,0.00
2018-08-30T19:44:08.006Z,0.00
2018-08-30T19:45:07.980Z,0.00
2018-08-30T19:46:07.942Z,0.00
2018-08-30T19:47:07.928Z,0.00
2018-08-30T19:48:07.926Z,0.00
2018-08-30T19:49:12.793Z,0.00
2018-08-30T19:50:07.924Z,0.00
2018-08-30T19:51:07.881Z,0.00
2018-08-30T19:52:07.901Z,0.00
2018-08-30T19:53:07.860Z,0.00
2018-08-30T19:54:07.855Z,0.00
2018-08-30T19:55:07.839Z,0.00
2018-08-30T19:56:07.859Z,0.00
2018-08-30T19:57:07.799Z,0.00
2018-08-30T19:58:07.803Z,0.00
2018-08-30T19:59:07.840Z,0.00
2018-08-30T20:00:07.787Z,0.00
2018-08-30T20:01:07.816Z,0.00
2018-08-30T20:02:07.750Z,0.00
2018-08-30T20:03:07.764Z,0.00
2018-08-30T20:04:07.752Z,0.00
2018-08-30T20:05:07.723Z,0.00
2018-08-30T20:06:07.736Z,0.00
2018-08-30T20:07:07.710Z,0.00
2018-08-30T20:08:07.707Z,0.00
2018-08-30T20:09:07.698Z,0.00
2018-08-30T20:10:07.706Z,0.00
2018-08-30T20:11:07.637Z,0.00
2018-08-30T20:12:07.654Z,0.00
2018-08-30T20:13:07.679Z,0.00
2018-08-30T20:14:07.625Z,0.00
2018-08-30T20:15:07.621Z,0.00
2018-08-30T20:16:07.598Z,0.00
2018-08-30T20:17:07.606Z,0.00
2018-08-30T20:18:07.584Z,0.00
2018-08-30T20:19:07.572Z,0.00
2018-08-30T20:20:07.587Z,0.00
2018-08-30T20:21:07.560Z,0.00
2018-08-30T20:22:07.603Z,0.00
2018-08-30T20:23:07.556Z,0.00
2018-08-30T20:24:07.521Z,0.00
2018-08-30T20:25:07.523Z,0.00
2018-08-30T20:26:07.517Z,0.00
2018-08-30T20:27:07.519Z,0.00
2018-08-30T20:28:07.512Z,0.00
2018-08-30T20:29:07.445Z,0.00
2018-08-30T20:30:07.440Z,0.00
2018-08-30T20:31:07.470Z,0.00
2018-08-30T20:32:07.441Z,0.00
2018-08-30T20:33:07.414Z,0.00
2018-08-30T20:34:07.446Z,0.00
2018-08-30T20:35:07.395Z,0.00
2018-08-30T20:36:07.394Z,0.00
2018-08-30T20:37:07.387Z,0.00
2018-08-30T20:38:07.373Z,0.00
2018-08-30T20:39:07.354Z,0.00
2018-08-30T20:40:07.352Z,0.00
2018-08-30T20:41:07.351Z,0.00
2018-08-30T20:42:07.412Z,0.00
2018-08-30T20:43:07.332Z,0.00
2018-08-30T20:44:07.297Z,0.00
2018-08-30T20:45:07.275Z,0.00
2018-08-30T20:46:07.277Z,0.00
2018-08-30T20:47:07.265Z,0.00
2018-08-30T20:48:07.298Z,0.00
2018-08-30T20:49:07.251Z,0.00
2018-08-30T20:50:12.137Z,0.00
2018-08-30T20:51:07.228Z,0.00
2018-08-30T20:52:07.199Z,0.00
2018-08-30T20:53:07.198Z,0.00
2018-08-30T20:54:07.214Z,0.00
2018-08-30T20:55:07.214Z,0.00
2018-08-30T20:56:07.182Z,0.00
2018-08-30T20:57:07.162Z,0.00
2018-08-30T20:58:07.142Z,0.00
2018-08-30T20:59:07.135Z,0.00
2018-08-30T21:00:07.204Z,0.00
2018-08-30T21:01:07.131Z,0.00
2018-08-30T21:02:07.135Z,0.00
2018-08-30T21:03:07.113Z,0.00
2018-08-30T21:04:07.093Z,0.00
2018-08-30T21:05:07.070Z,0.00
2018-08-30T21:06:07.087Z,0.00
2018-08-30T21:07:07.056Z,0.00
2018-08-30T21:08:07.047Z,0.00
2018-08-30T21:09:07.089Z,0.00
2018-08-30T21:10:07.032Z,0.00
2018-08-30T21:11:07.012Z,0.00
2018-08-30T21:12:07.012Z,0.00
2018-08-30T21:13:06.997Z,0.00
2018-08-30T21:14:06.973Z,0.00
2018-08-30T21:15:07.005Z,0.00
2018-08-30T21:16:06.981Z,0.00
2018-08-30T21:17:06.948Z,0.00
2018-08-30T21:18:06.965Z,0.00
2018-08-30T21:19:06.910Z,0.00
2018-08-30T21:20:06.915Z,0.00
2018-08-30T21:21:06.987Z,0.00
2018-08-30T21:22:06.928Z,0.00
2018-08-30T21:23:06.909Z,0.00
2018-08-30T21:24:06.903Z,0.00
2018-08-30T21:25:06.861Z,0.00
2018-08-30T21:26:06.860Z,0.00
2018-08-30T21:27:06.830Z,0.00
2018-08-30T21:28:06.836Z,0.00
2018-08-30T21:29:06.812Z,0.00
2018-08-30T21:30:06.859Z,0.00
2018-08-30T21:31:06.796Z,0.00
2018-08-30T21:32:06.785Z,0.00
2018-08-30T21:33:06.778Z,0.00
2018-08-30T21:34:06.757Z,0.00
2018-08-30T21:35:06.782Z,0.00
2018-08-30T21:36:06.736Z,0.00
2018-08-30T21:37:06.753Z,0.00
2018-08-30T21:38:06.718Z,0.00
2018-08-30T21:39:06.701Z,0.00
2018-08-30T21:40:06.692Z,0.00
2018-08-30T21:41:06.717Z,0.00
2018-08-30T21:42:06.686Z,0.00
2018-08-30T21:43:06.662Z,0.00
2018-08-30T21:44:06.695Z,0.00
2018-08-30T21:45:06.638Z,0.00
2018-08-30T21:46:06.631Z,0.00
2018-08-30T21:47:06.640Z,0.00
2018-08-30T21:48:06.615Z,0.00
2018-08-30T21:49:06.601Z,0.00
2018-08-30T21:50:06.602Z,0.00
2018-08-30T21:51:11.465Z,0.00
2018-08-30T21:52:06.570Z,0.00
2018-08-30T21:53:06.576Z,0.00
2018-08-30T21:54:06.557Z,0.00
2018-08-30T21:55:06.534Z,0.00
2018-08-30T21:56:06.524Z,0.00
2018-08-30T21:57:06.505Z,0.00
2018-08-30T21:58:06.543Z,0.00
2018-08-30T21:59:06.517Z,0.00
2018-08-30T22:00:06.480Z,0.00
2018-08-30T22:01:06.489Z,0.00
2018-08-30T22:02:06.510Z,0.00
2018-08-30T22:03:06.461Z,0.00
2018-08-30T22:04:06.454Z,0.00
2018-08-30T22:05:06.480Z,0.00
2018-08-30T22:06:06.429Z,0.00
2018-08-30T22:07:06.406Z,0.00
2018-08-30T22:08:06.419Z,0.00
2018-08-30T22:09:06.372Z,0.00
2018-08-30T22:10:06.371Z,0.00
2018-08-30T22:11:06.395Z,0.00
2018-08-30T22:12:06.368Z,0.00
2018-08-30T22:13:06.394Z,0.00
2018-08-30T22:14:06.339Z,0.00
2018-08-30T22:15:06.301Z,0.00
2018-08-30T22:16:06.303Z,0.00
2018-08-30T22:17:06.329Z,0.00
2018-08-30T22:18:06.294Z,0.00
2018-08-30T22:19:06.328Z,0.00
2018-08-30T22:20:06.271Z,0.00
2018-08-30T22:21:06.249Z,0.00
2018-08-30T22:22:06.266Z,0.00
2018-08-30T22:23:06.221Z,0.00
2018-08-30T22:24:06.207Z,0.00
2018-08-30T22:25:06.208Z,0.00
2018-08-30T22:26:06.258Z,0.00
2018-08-30T22:27:06.184Z,0.00
2018-08-30T22:28:06.205Z,0.00
2018-08-30T22:29:06.178Z,0.00
2018-08-30T22:30:06.142Z,0.00
2018-08-30T22:31:06.134Z,0.00
2018-08-30T22:32:06.113Z,0.00
2018-08-30T22:33:06.170Z,0.00
2018-08-30T22:34:06.122Z,0.00
2018-08-30T22:35:06.157Z,0.00
2018-08-30T22:36:06.104Z,0.00
2018-08-30T22:37:06.101Z,0.00
2018-08-30T22:38:06.062Z,0.00
2018-08-30T22:39:06.122Z,0.00
2018-08-30T22:40:06.099Z,0.00
2018-08-30T22:41:06.045Z,0.00
2018-08-30T22:42:06.017Z,0.00
2018-08-30T22:43:06.046Z,0.00
2018-08-30T22:44:05.991Z,0.00
2018-08-30T22:45:05.984Z,0.00
2018-08-30T22:46:05.997Z,0.00
2018-08-30T22:47:05.981Z,0.00
2018-08-30T22:48:05.953Z,0.00
2018-08-30T22:49:05.955Z,0.00
2018-08-30T22:50:05.924Z,0.00
2018-08-30T22:51:05.904Z,0.00
2018-08-30T22:52:10.809Z,0.00
2018-08-30T22:53:05.912Z,0.00
2018-08-30T22:54:05.919Z,0.00
2018-08-30T22:55:05.875Z,0.00
2018-08-30T22:56:05.858Z,0.00
2018-08-30T22:57:05.867Z,0.00
2018-08-30T22:58:05.862Z,0.00
2018-08-30T22:59:05.825Z,0.00
2018-08-30T23:00:05.818Z,0.00
2018-08-30T23:01:05.839Z,0.00
2018-08-30T23:02:05.802Z,0.00
2018-08-30T23:03:05.807Z,0.00
2018-08-30T23:04:05.820Z,0.00
2018-08-30T23:05:05.758Z,0.00
2018-08-30T23:06:05.805Z,0.00
2018-08-30T23:07:05.736Z,0.00
2018-08-30T23:08:05.795Z,0.00
2018-08-30T23:09:05.733Z,0.00
2018-08-30T23:10:05.764Z,0.00
2018-08-30T23:11:05.695Z,0.00
2018-08-30T23:12:05.690Z,0.00
2018-08-30T23:13:05.681Z,0.00
2018-08-30T23:14:05.676Z,0.00
2018-08-30T23:15:05.695Z,0.00
2018-08-30T23:16:05.736Z,0.00
2018-08-30T23:17:05.649Z,0.00
2018-08-30T23:18:05.659Z,0.00
2018-08-30T23:19:05.606Z,0.00
2018-08-30T23:20:05.601Z,0.00
2018-08-30T23:21:05.618Z,0.00
2018-08-30T23:22:05.748Z,0.00
2018-08-30T23:23:05.572Z,0.00
2018-08-30T23:24:05.552Z,0.00
2018-08-30T23:25:05.561Z,0.00
2018-08-30T23:26:05.565Z,0.00
2018-08-30T23:27:05.567Z,0.00
2018-08-30T23:28:05.513Z,0.00
2018-08-30T23:29:05.528Z,0.00
2018-08-30T23:30:05.505Z,0.00
2018-08-30T23:31:05.488Z,0.00